createdAt,value
2022-12-12T00:01:27.062Z,13.30
2022-12-12T00:03:55.264Z,12.27
2022-12-12T00:06:24.707Z,13.03
2022-12-12T00:08:53.293Z,11.07
2022-12-12T00:11:22.393Z,12.10
2022-12-12T00:13:50.868Z,10.90
2022-12-12T00:16:20.552Z,10.53
2022-12-12T00:18:48.892Z,12.50
2022-12-12T00:21:18.766Z,12.80
2022-12-12T00:23:47.258Z,12.20
2022-12-12T00:26:19.257Z,11.13
2022-12-12T00:28:47.899Z,12.00
2022-12-12T00:31:17.410Z,12.70
2022-12-12T00:33:49.971Z,12.00
2022-12-12T00:36:20.035Z,11.73
2022-12-12T00:38:48.587Z,13.03
2022-12-12T00:41:17.487Z,13.07
2022-12-12T00:43:45.697Z,12.20
2022-12-12T00:46:16.019Z,12.63
2022-12-12T00:48:44.375Z,13.73
2022-12-12T00:51:18.358Z,13.97
2022-12-12T00:53:47.179Z,12.23
2022-12-12T00:56:17.062Z,13.80
2022-12-12T00:58:46.611Z,13.43
2022-12-12T01:01:17.740Z,13.50
2022-12-12T01:03:54.898Z,13.17
2022-12-12T01:06:24.720Z,12.33
2022-12-12T01:08:52.927Z,14.03
2022-12-12T01:11:21.730Z,13.47
2022-12-12T01:13:50.975Z,13.30
2022-12-12T01:16:19.314Z,14.37
2022-12-12T01:18:47.768Z,14.40
2022-12-12T01:21:17.862Z,13.07
2022-12-12T01:23:47.490Z,13.23
2022-12-12T01:26:17.772Z,14.83
2022-12-12T01:28:46.700Z,13.07
2022-12-12T01:31:15.676Z,13.60
2022-12-12T01:33:46.052Z,13.83
2022-12-12T01:36:16.683Z,13.43
2022-12-12T01:38:47.436Z,14.93
2022-12-12T01:41:16.738Z,14.33
2022-12-12T01:43:45.214Z,14.67
2022-12-12T01:46:39.543Z,13.83
2022-12-12T01:49:14.328Z,14.57
2022-12-12T01:51:44.150Z,13.07
2022-12-12T01:54:17.254Z,13.43
2022-12-12T01:56:46.842Z,13.70
2022-12-12T01:59:17.134Z,14.17
2022-12-12T02:01:45.958Z,13.27
2022-12-12T02:04:16.466Z,14.40
2022-12-12T02:06:45.025Z,14.20
2022-12-12T02:09:16.888Z,13.60
2022-12-12T02:11:46.991Z,13.67
2022-12-12T02:14:18.488Z,14.13
2022-12-12T02:17:09.240Z,13.50
2022-12-12T02:20:20.923Z,12.80
2022-12-12T02:23:31.635Z,13.33
2022-12-12T02:26:27.689Z,13.30
2022-12-12T02:29:36.859Z,12.23
2022-12-12T02:32:11.582Z,12.30
2022-12-12T02:34:47.976Z,13.37
2022-12-12T02:37:22.940Z,13.83
2022-12-12T02:40:02.629Z,13.37
2022-12-12T02:42:38.750Z,12.40
2022-12-12T02:45:14.713Z,12.83
2022-12-12T02:47:49.218Z,12.20
2022-12-12T02:50:21.165Z,13.17
2022-12-12T02:52:50.121Z,13.37
2022-12-12T02:55:19.732Z,12.27
2022-12-12T02:57:49.899Z,13.23
2022-12-12T03:00:21.571Z,13.90
2022-12-12T03:03:33.538Z,13.20
2022-12-12T03:06:35.105Z,12.00
2022-12-12T03:09:17.257Z,13.57
2022-12-12T03:12:00.549Z,11.93
2022-12-12T03:14:43.189Z,12.30
2022-12-12T03:17:18.119Z,13.43
2022-12-12T03:19:55.428Z,12.70
2022-12-12T03:22:28.840Z,13.20
2022-12-12T03:25:03.290Z,11.30
2022-12-12T03:27:36.826Z,12.00
2022-12-12T03:30:08.707Z,12.33
2022-12-12T03:32:43.168Z,12.30
2022-12-12T03:35:18.736Z,12.30
2022-12-12T03:37:52.184Z,12.10
2022-12-12T03:40:26.154Z,11.80
2022-12-12T03:43:00.877Z,10.97
2022-12-12T03:45:35.476Z,11.30
2022-12-12T03:48:10.216Z,12.57
2022-12-12T03:50:45.501Z,13.13
2022-12-12T03:53:18.380Z,13.60
2022-12-12T03:55:52.705Z,12.10
2022-12-12T03:58:27.942Z,9.50
2022-12-12T04:00:59.219Z,8.60
2022-12-12T04:03:33.570Z,9.30
2022-12-12T04:06:25.947Z,10.33
2022-12-12T04:09:11.637Z,9.10
2022-12-12T04:12:01.932Z,9.80
2022-12-12T04:14:46.424Z,10.43
2022-12-12T04:17:20.302Z,11.00
2022-12-12T04:20:14.360Z,10.93
2022-12-12T04:23:07.026Z,11.43
2022-12-12T04:26:02.375Z,12.13
2022-12-12T04:28:33.228Z,12.53
2022-12-12T04:31:05.382Z,13.73
2022-12-12T04:33:40.424Z,13.40
2022-12-12T04:36:11.105Z,13.50
2022-12-12T04:38:44.048Z,14.23
2022-12-12T04:41:14.504Z,13.73
2022-12-12T04:43:45.063Z,14.37
2022-12-12T04:46:17.220Z,14.17
2022-12-12T04:48:51.839Z,14.47
2022-12-12T04:51:27.981Z,13.80
2022-12-12T04:54:03.461Z,14.57
2022-12-12T04:56:33.517Z,14.30
2022-12-12T04:59:01.573Z,15.67
2022-12-12T05:01:36.550Z,14.67
2022-12-12T05:04:10.630Z,15.20
2022-12-12T05:06:44.379Z,13.70
2022-12-12T05:09:14.918Z,14.60
2022-12-12T05:11:43.835Z,15.83
2022-12-12T05:14:15.437Z,15.17
2022-12-12T05:16:46.968Z,15.20
2022-12-12T05:19:15.230Z,13.70
2022-12-12T05:21:43.530Z,14.70
2022-12-12T05:24:12.939Z,14.57
2022-12-12T05:26:41.055Z,15.17
2022-12-12T05:29:09.125Z,14.47
2022-12-12T05:31:37.402Z,14.57
2022-12-12T05:34:05.677Z,15.70
2022-12-12T05:36:33.691Z,14.03
2022-12-12T05:39:01.691Z,14.20
2022-12-12T05:41:31.149Z,13.60
2022-12-12T05:43:59.165Z,14.83
2022-12-12T05:46:27.249Z,12.30
2022-12-12T05:48:55.790Z,12.50
2022-12-12T05:51:23.802Z,13.03
2022-12-12T05:53:51.807Z,13.57
2022-12-12T05:56:19.838Z,13.50
2022-12-12T05:58:49.259Z,14.00
2022-12-12T06:01:17.303Z,13.27
2022-12-12T06:03:45.286Z,12.70
2022-12-12T06:06:13.580Z,13.77
2022-12-12T06:08:41.839Z,13.13
2022-12-12T06:11:10.396Z,13.70
2022-12-12T06:13:39.258Z,13.80
2022-12-12T06:16:10.233Z,15.40
2022-12-12T06:18:38.495Z,12.97
2022-12-12T06:21:08.466Z,13.07
2022-12-12T06:23:38.221Z,11.50
2022-12-12T06:26:06.723Z,13.83
2022-12-12T06:28:34.912Z,13.40
2022-12-12T06:31:08.170Z,14.27
2022-12-12T06:33:40.971Z,12.73
2022-12-12T06:36:13.971Z,13.30
2022-12-12T06:38:42.568Z,11.70
2022-12-12T06:41:12.386Z,10.50
2022-12-12T06:43:40.897Z,13.47
2022-12-12T06:46:11.863Z,11.57
2022-12-12T06:48:41.568Z,13.00
2022-12-12T06:51:11.105Z,12.90
2022-12-12T06:53:39.140Z,13.00
2022-12-12T06:56:08.914Z,12.93
2022-12-12T06:58:37.004Z,14.03
2022-12-12T07:01:05.805Z,15.00
2022-12-12T07:03:34.409Z,14.17
2022-12-12T07:06:03.953Z,14.90
2022-12-12T07:08:32.205Z,11.97
2022-12-12T07:11:05.485Z,13.70
2022-12-12T07:13:33.754Z,14.57
2022-12-12T07:16:02.027Z,15.50
2022-12-12T07:18:30.074Z,15.70
2022-12-12T07:20:58.071Z,16.70
2022-12-12T07:23:27.593Z,15.10
2022-12-12T07:25:55.543Z,14.80
2022-12-12T07:28:23.804Z,15.83
2022-12-12T07:30:51.879Z,14.27
2022-12-12T07:33:20.118Z,14.97
2022-12-12T07:35:48.130Z,14.40
2022-12-12T07:38:16.371Z,15.27
2022-12-12T07:40:45.689Z,14.30
2022-12-12T07:43:13.754Z,13.80
2022-12-12T07:45:45.487Z,15.70
2022-12-12T07:48:14.149Z,14.63
2022-12-12T07:50:42.861Z,16.77
2022-12-12T07:53:10.813Z,14.23
2022-12-12T07:55:40.548Z,16.03
2022-12-12T07:58:10.041Z,15.03
2022-12-12T08:00:41.066Z,16.30
2022-12-12T08:03:09.075Z,15.03
2022-12-12T08:05:42.319Z,16.40
2022-12-12T08:08:10.982Z,16.00
2022-12-12T08:10:40.320Z,15.03
2022-12-12T08:13:10.378Z,14.50
2022-12-12T08:15:38.552Z,16.77
2022-12-12T08:18:06.748Z,16.10
2022-12-12T08:20:34.767Z,14.37
2022-12-12T08:23:02.868Z,16.03
2022-12-12T08:25:39.498Z,16.07
2022-12-12T08:28:15.494Z,14.77
2022-12-12T08:31:06.878Z,15.87
2022-12-12T08:33:41.149Z,14.43
2022-12-12T08:36:25.271Z,15.10
2022-12-12T08:38:54.308Z,16.03
2022-12-12T08:41:22.468Z,20.67
2022-12-12T08:43:52.875Z,16.70
2022-12-12T08:46:33.844Z,15.87
2022-12-12T08:49:01.939Z,26.30
2022-12-12T08:51:30.162Z,15.67
2022-12-12T08:54:02.695Z,16.47
2022-12-12T08:56:58.613Z,14.23
2022-12-12T08:59:50.590Z,14.87
2022-12-12T09:03:01.131Z,13.57
2022-12-12T09:05:29.629Z,13.50
2022-12-12T09:08:01.461Z,14.83
2022-12-12T09:10:36.207Z,15.60
2022-12-12T09:13:08.039Z,15.07
2022-12-12T09:15:38.645Z,17.53
2022-12-12T09:18:07.071Z,16.53
2022-12-12T09:20:35.085Z,15.40
2022-12-12T09:23:03.121Z,14.60
2022-12-12T09:25:31.163Z,15.20
2022-12-12T09:27:59.248Z,14.57
2022-12-12T09:30:27.485Z,15.67
2022-12-12T09:32:56.845Z,15.50
2022-12-12T09:35:24.727Z,16.20
2022-12-12T09:37:54.149Z,14.60
2022-12-12T09:40:28.823Z,16.30
2022-12-12T09:42:57.253Z,15.20
2022-12-12T09:45:25.386Z,15.30
2022-12-12T09:48:00.529Z,16.03
2022-12-12T09:50:33.020Z,14.80
2022-12-12T09:53:04.585Z,15.50
2022-12-12T09:55:47.866Z,13.70
2022-12-12T09:58:22.881Z,15.33
2022-12-12T10:00:58.869Z,15.17
2022-12-12T10:03:40.210Z,14.33
2022-12-12T10:06:36.374Z,14.43
2022-12-12T10:09:10.318Z,12.70
2022-12-12T10:11:54.896Z,12.37
2022-12-12T10:14:30.573Z,12.90
2022-12-12T10:16:59.934Z,12.70
2022-12-12T10:19:32.089Z,12.20
2022-12-12T10:22:05.635Z,12.37
2022-12-12T10:24:42.206Z,11.53
2022-12-12T10:27:13.050Z,13.37
2022-12-12T10:29:44.801Z,12.00
2022-12-12T10:32:22.190Z,11.77
2022-12-12T10:35:03.696Z,12.37
2022-12-12T10:37:43.747Z,11.23
2022-12-12T10:40:25.720Z,11.20
2022-12-12T10:43:01.428Z,9.90
2022-12-12T10:45:42.572Z,9.90
2022-12-12T10:48:12.780Z,10.80
2022-12-12T10:50:46.751Z,11.60
2022-12-12T10:53:15.001Z,9.60
2022-12-12T10:55:49.422Z,11.03
2022-12-12T10:58:18.313Z,11.10
2022-12-12T11:00:49.361Z,12.30
2022-12-12T11:03:29.803Z,10.93
2022-12-12T11:05:59.834Z,10.73
2022-12-12T11:08:43.292Z,11.50
2022-12-12T11:11:24.329Z,11.00
2022-12-12T11:14:30.506Z,10.20
2022-12-12T11:16:58.582Z,10.90
2022-12-12T11:19:28.244Z,11.00
2022-12-12T11:22:15.926Z,10.03
2022-12-12T11:24:46.823Z,10.90
2022-12-12T11:27:23.199Z,11.07
2022-12-12T11:29:56.430Z,9.63
2022-12-12T11:32:28.250Z,11.17
2022-12-12T11:34:59.332Z,12.03
2022-12-12T11:37:39.132Z,10.40
2022-12-12T11:40:18.998Z,12.13
2022-12-12T11:42:49.153Z,9.90
2022-12-12T11:45:24.340Z,11.20
2022-12-12T11:47:52.910Z,11.20
2022-12-12T11:50:23.921Z,11.50
2022-12-12T11:52:55.287Z,12.40
2022-12-12T11:58:15.963Z,13.10
2022-12-12T12:00:51.802Z,12.63
2022-12-12T12:03:39.402Z,12.67
2022-12-12T12:06:21.199Z,10.50
2022-12-12T12:09:16.919Z,11.50
2022-12-12T12:11:53.548Z,12.70
2022-12-12T12:14:35.214Z,12.40
2022-12-12T12:17:11.987Z,11.93
2022-12-12T12:19:47.357Z,11.27
2022-12-12T12:22:28.833Z,12.13
2022-12-12T12:25:15.437Z,11.97
2022-12-12T12:27:51.167Z,10.97
2022-12-12T12:30:22.950Z,10.43
2022-12-12T12:33:15.685Z,11.33
2022-12-12T12:35:54.510Z,13.07
2022-12-12T12:38:29.242Z,12.43
2022-12-12T12:41:12.751Z,11.57
2022-12-12T12:43:54.447Z,11.27
2022-12-12T12:46:34.931Z,10.60
2022-12-12T12:49:11.259Z,11.50
2022-12-12T12:51:48.650Z,10.00
2022-12-12T12:54:24.137Z,11.60
2022-12-12T12:57:01.132Z,11.27
2022-12-12T12:59:33.880Z,10.60
2022-12-12T13:02:09.669Z,11.33
2022-12-12T13:04:43.692Z,12.17
2022-12-12T13:07:18.399Z,11.30
2022-12-12T13:09:54.807Z,11.47
2022-12-12T13:12:30.702Z,10.33
2022-12-12T13:15:02.068Z,9.63
2022-12-12T13:17:42.560Z,10.60
2022-12-12T13:20:17.156Z,10.80
2022-12-12T13:22:55.034Z,9.70
2022-12-12T13:25:32.701Z,9.97
2022-12-12T13:28:06.000Z,9.70
2022-12-12T13:30:48.303Z,11.53
2022-12-12T13:33:35.617Z,12.80
2022-12-12T13:36:13.527Z,14.37
2022-12-12T13:38:47.264Z,11.50
2022-12-12T13:41:15.602Z,12.53
2022-12-12T13:43:48.458Z,13.87
2022-12-12T13:46:36.029Z,12.27
2022-12-12T13:49:18.088Z,11.57
2022-12-12T13:51:46.736Z,11.70
2022-12-12T13:54:51.582Z,11.03
2022-12-12T13:57:25.503Z,12.27
2022-12-12T14:00:26.020Z,12.57
2022-12-12T14:03:31.517Z,12.70
2022-12-12T14:06:12.140Z,12.67
2022-12-12T14:08:50.256Z,11.73
2022-12-12T14:11:37.629Z,10.90
2022-12-12T14:14:24.115Z,12.30
2022-12-12T14:16:58.197Z,12.83
2022-12-12T14:19:30.430Z,10.83
2022-12-12T14:21:58.638Z,12.17
2022-12-12T14:25:03.617Z,11.60
2022-12-12T14:28:14.557Z,11.80
2022-12-12T14:30:52.561Z,11.80
2022-12-12T14:34:09.745Z,11.47
2022-12-12T14:37:08.611Z,11.73
2022-12-12T14:39:51.952Z,12.27
2022-12-12T14:42:26.945Z,12.23
2022-12-12T14:45:33.215Z,13.50
2022-12-12T14:48:12.106Z,12.03
2022-12-12T14:50:45.466Z,11.10
2022-12-12T14:53:18.605Z,11.03
2022-12-12T14:55:53.202Z,12.43
2022-12-12T14:58:24.360Z,10.33
2022-12-12T15:00:55.628Z,10.37
2022-12-12T15:03:30.918Z,11.30
2022-12-12T15:06:29.501Z,11.33
2022-12-12T15:08:59.224Z,11.63
2022-12-12T15:11:32.915Z,12.63
2022-12-12T15:14:03.250Z,11.00
2022-12-12T15:16:44.361Z,12.20
2022-12-12T15:19:20.322Z,10.37
2022-12-12T15:21:50.091Z,12.07
2022-12-12T15:24:21.370Z,10.80
2022-12-12T15:26:51.849Z,11.40
2022-12-12T15:29:23.200Z,13.33
2022-12-12T15:31:57.552Z,12.33
2022-12-12T15:34:43.953Z,11.97
2022-12-12T15:37:28.745Z,12.23
2022-12-12T15:40:17.618Z,12.23
2022-12-12T15:42:48.620Z,10.47
2022-12-12T15:45:21.558Z,11.00
2022-12-12T15:47:51.740Z,10.27
2022-12-12T15:50:21.807Z,10.50
2022-12-12T15:53:05.586Z,14.10
2022-12-12T15:55:35.168Z,13.40
2022-12-12T15:58:03.321Z,11.20
2022-12-12T16:00:35.739Z,11.20
2022-12-12T16:03:07.236Z,11.60
2022-12-12T16:05:37.644Z,11.63
2022-12-12T16:08:32.375Z,11.40
2022-12-12T16:11:04.508Z,10.27
2022-12-12T16:13:38.344Z,9.03
2022-12-12T16:16:38.136Z,10.17
2022-12-12T16:19:15.612Z,9.83
2022-12-12T16:21:44.144Z,10.20
2022-12-12T16:24:22.074Z,9.30
2022-12-12T16:26:50.375Z,9.60
2022-12-12T16:29:18.896Z,9.70
2022-12-12T16:31:47.639Z,10.07
2022-12-12T16:34:16.519Z,9.10
2022-12-12T16:36:44.791Z,10.90
2022-12-12T16:39:16.970Z,10.40
2022-12-12T16:41:45.894Z,10.13
2022-12-12T16:44:14.116Z,10.17
2022-12-12T16:46:42.365Z,10.33
2022-12-12T16:49:15.263Z,9.53
2022-12-12T16:51:44.148Z,10.57
2022-12-12T16:54:17.948Z,10.60
2022-12-12T16:56:52.511Z,9.77
2022-12-12T16:59:20.578Z,10.17
2022-12-12T17:01:48.766Z,11.10
2022-12-12T17:04:21.048Z,10.77
2022-12-12T17:06:49.396Z,9.53
2022-12-12T17:09:19.875Z,9.07
2022-12-12T17:11:49.252Z,9.30
2022-12-12T17:14:21.584Z,9.73
2022-12-12T17:16:49.891Z,9.40
2022-12-12T17:19:18.275Z,9.93
2022-12-12T17:21:46.813Z,11.13
2022-12-12T17:24:15.065Z,9.60
2022-12-12T17:26:44.522Z,9.90
2022-12-12T17:29:13.712Z,8.93
2022-12-12T17:31:42.242Z,8.43
2022-12-12T17:34:11.459Z,9.57
2022-12-12T17:36:39.548Z,9.40
2022-12-12T17:39:07.627Z,8.97
2022-12-12T17:41:35.790Z,9.97
2022-12-12T17:44:05.523Z,9.80
2022-12-12T17:46:34.113Z,9.83
2022-12-12T17:49:03.425Z,9.70
2022-12-12T17:51:31.548Z,11.03
2022-12-12T17:54:00.234Z,10.40
2022-12-12T17:56:28.366Z,10.10
2022-12-12T17:58:56.529Z,10.80
2022-12-12T18:01:28.196Z,11.50
2022-12-12T18:03:56.870Z,10.47
2022-12-12T18:06:26.273Z,11.73
2022-12-12T18:08:54.767Z,11.07
2022-12-12T18:11:25.544Z,11.30
2022-12-12T18:13:55.186Z,10.77
2022-12-12T18:16:27.186Z,13.50
2022-12-12T18:18:55.998Z,13.63
2022-12-12T18:24:14.129Z,13.60
2022-12-12T18:26:42.560Z,14.50
2022-12-12T18:29:12.748Z,16.27
2022-12-12T18:31:42.091Z,17.13
2022-12-12T18:34:10.438Z,17.50
2022-12-12T18:36:38.448Z,15.20
2022-12-12T18:39:06.976Z,15.23
2022-12-12T18:41:36.810Z,15.50
2022-12-12T18:44:07.175Z,14.80
2022-12-12T18:46:42.299Z,13.63
2022-12-12T18:49:15.500Z,14.57
2022-12-12T18:51:45.057Z,15.17
2022-12-12T18:54:15.998Z,13.50
2022-12-12T18:56:45.224Z,13.90
2022-12-12T18:59:13.683Z,15.60
2022-12-12T19:01:42.046Z,12.87
2022-12-12T19:04:14.154Z,14.30
2022-12-12T19:06:44.823Z,13.50
2022-12-12T19:09:15.162Z,15.40
2022-12-12T19:11:44.401Z,12.57
2022-12-12T19:14:16.799Z,12.53
2022-12-12T19:16:45.819Z,12.17
2022-12-12T19:19:14.641Z,13.20
2022-12-12T19:21:45.035Z,12.47
2022-12-12T19:24:14.656Z,12.30
2022-12-12T19:26:44.685Z,12.97
2022-12-12T19:29:14.731Z,14.07
2022-12-12T19:31:42.954Z,13.93
2022-12-12T19:34:15.227Z,14.50
2022-12-12T19:36:45.481Z,14.23
2022-12-12T19:39:13.856Z,15.20
2022-12-12T19:41:42.796Z,14.70
2022-12-12T19:44:14.707Z,15.13
2022-12-12T19:46:45.611Z,15.50
2022-12-12T19:49:15.416Z,15.97
2022-12-12T19:51:45.880Z,15.70
2022-12-12T19:54:16.431Z,14.23
2022-12-12T19:56:44.934Z,16.00
2022-12-12T19:59:14.356Z,14.50
2022-12-12T20:01:43.132Z,14.37
2022-12-12T20:04:16.997Z,14.73
2022-12-12T20:06:49.244Z,15.70
2022-12-12T20:09:20.000Z,13.37
2022-12-12T20:11:48.876Z,13.23
2022-12-12T20:14:19.160Z,14.90
2022-12-12T20:16:47.906Z,15.83
2022-12-12T20:19:16.358Z,13.67
2022-12-12T20:22:03.534Z,14.97
2022-12-12T20:24:33.455Z,14.67
2022-12-12T20:27:03.816Z,14.80
2022-12-12T20:29:32.410Z,15.17
2022-12-12T20:32:01.422Z,14.90
2022-12-12T20:34:30.184Z,13.80
2022-12-12T20:36:59.738Z,14.80
2022-12-12T20:39:28.002Z,13.43
2022-12-12T20:41:57.684Z,13.93
2022-12-12T20:44:26.110Z,14.27
2022-12-12T20:46:54.575Z,13.80
2022-12-12T20:49:24.841Z,15.20
2022-12-12T20:51:56.455Z,13.70
2022-12-12T20:54:28.122Z,13.07
2022-12-12T20:56:57.799Z,13.77
2022-12-12T20:59:26.307Z,12.80
2022-12-12T21:01:54.675Z,14.30
2022-12-12T21:04:24.182Z,13.63
2022-12-12T21:06:52.564Z,13.00
2022-12-12T21:09:25.362Z,11.47
2022-12-12T21:11:56.710Z,13.53
2022-12-12T21:14:25.032Z,15.20
2022-12-12T21:16:53.786Z,15.10
2022-12-12T21:19:23.666Z,12.80
2022-12-12T21:21:52.230Z,12.50
2022-12-12T21:24:21.412Z,12.30
2022-12-12T21:26:49.785Z,14.03
2022-12-12T21:29:19.447Z,13.47
2022-12-12T21:31:52.059Z,12.57
2022-12-12T21:34:22.357Z,13.60
2022-12-12T21:36:54.171Z,13.83
2022-12-12T21:39:23.274Z,12.50
2022-12-12T21:41:51.907Z,12.10
2022-12-12T21:44:22.473Z,14.60
2022-12-12T21:46:50.792Z,15.23
2022-12-12T21:49:27.429Z,13.40
2022-12-12T21:51:56.958Z,14.83
2022-12-12T21:54:25.159Z,13.70
2022-12-12T21:56:53.984Z,13.60
2022-12-12T21:59:26.198Z,14.70
2022-12-12T22:01:55.615Z,13.60
2022-12-12T22:04:24.073Z,13.87
2022-12-12T22:06:56.994Z,13.90
2022-12-12T22:09:29.307Z,13.97
2022-12-12T22:12:04.383Z,14.70
2022-12-12T22:14:48.097Z,13.37
2022-12-12T22:17:16.689Z,14.00
2022-12-12T22:19:45.127Z,17.20
2022-12-12T22:22:16.018Z,17.37
2022-12-12T22:24:44.099Z,17.00
2022-12-12T22:27:12.161Z,17.83
2022-12-12T22:29:41.608Z,15.13
2022-12-12T22:32:09.721Z,17.30
2022-12-12T22:34:37.768Z,16.77
2022-12-12T22:37:05.836Z,15.20
2022-12-12T22:39:34.184Z,15.50
2022-12-12T22:42:02.284Z,13.23
2022-12-12T22:44:30.445Z,12.47
2022-12-12T22:46:59.986Z,12.53
2022-12-12T22:49:28.423Z,13.83
2022-12-12T22:51:57.981Z,14.17
2022-12-12T22:54:26.932Z,12.73
2022-12-12T22:56:55.153Z,13.60
2022-12-12T22:59:23.283Z,14.00
2022-12-12T23:01:51.256Z,11.93
2022-12-12T23:04:20.663Z,13.87
2022-12-12T23:06:49.049Z,13.57
2022-12-12T23:09:19.528Z,13.30
2022-12-12T23:11:47.742Z,12.30
2022-12-12T23:14:17.296Z,13.70
2022-12-12T23:16:46.330Z,12.60
2022-12-12T23:19:16.087Z,13.70
2022-12-12T23:21:45.671Z,12.40
2022-12-12T23:24:14.789Z,13.07
2022-12-12T23:26:43.590Z,14.00
2022-12-12T23:29:16.322Z,11.87
2022-12-12T23:31:45.338Z,12.97
2022-12-12T23:34:16.365Z,12.47
2022-12-12T23:36:45.890Z,13.57
2022-12-12T23:39:15.008Z,12.43
2022-12-12T23:41:43.449Z,12.63
2022-12-12T23:44:13.371Z,11.10
2022-12-12T23:46:41.501Z,11.80
2022-12-12T23:49:17.515Z,13.30
2022-12-12T23:51:48.732Z,12.03
2022-12-12T23:54:19.052Z,12.80
2022-12-12T23:56:48.096Z,11.27
2022-12-12T23:59:18.563Z,12.57
